Time,TemperatureF,DewpointF,PressureIn,WindDirection,WindDirectionDegrees,WindSpeedMPH,WindSpeedGustMPH,Humidity,HourlyPrecipIn,Conditions,Clouds,dailyrainin,SoftwareType,DateUTC
2013-09-27 00:00:00,54.5,28.8,29.94,SSW,195,0.0,0.0,37,0.00,,---,0.00,VWS V14.01,2013-09-27 04:00:00,
2013-09-27 00:01:00,54.5,28.8,29.94,SSW,195,0.0,0.0,37,0.00,,---,0.00,VWS V14.01,2013-09-27 04:01:00,
2013-09-27 00:06:00,54.5,28.8,29.94,SSW,195,0.0,0.0,37,0.00,,---,0.00,VWS V14.01,2013-09-27 04:06:00,
2013-09-27 00:11:00,54.3,28.6,29.94,SSW,195,0.0,0.0,37,0.00,,---,0.00,VWS V14.01,2013-09-27 04:11:00,
2013-09-27 00:16:00,53.8,28.1,29.94,SSW,195,0.0,0.0,37,0.00,,---,0.00,VWS V14.01,2013-09-27 04:16:00,
2013-09-27 00:21:00,53.4,28.5,29.94,SSW,195,0.0,0.0,38,0.00,,---,0.00,VWS V14.01,2013-09-27 04:21:00,
2013-09-27 00:26:00,53.4,29.1,29.94,SSW,195,0.0,0.0,39,0.00,,---,0.00,VWS V14.01,2013-09-27 04:26:00,
2013-09-27 00:31:00,53.2,28.9,29.94,SSW,195,0.0,0.0,39,0.00,,---,0.00,VWS V14.01,2013-09-27 04:31:00,
2013-09-27 00:36:00,53.1,28.8,29.94,SSW,195,0.0,0.0,39,0.00,,---,0.00,VWS V14.01,2013-09-27 04:36:00,
2013-09-27 00:41:00,53.2,29.6,29.94,SSW,195,0.0,0.0,40,0.00,,---,0.00,VWS V14.01,2013-09-27 04:41:00,
2013-09-27 00:46:00,53.2,29.6,29.94,SSW,195,0.0,0.0,40,0.00,,---,0.00,VWS V14.01,2013-09-27 04:46:00,
2013-09-27 00:51:00,53.1,30.0,29.94,SSW,195,0.0,0.0,41,0.00,,---,0.00,VWS V14.01,2013-09-27 04:51:00,
2013-09-27 00:56:00,53.1,30.0,29.94,SSW,195,0.0,0.0,41,0.00,,---,0.00,VWS V14.01,2013-09-27 04:56:00,
2013-09-27 01:01:00,53.1,30.6,29.94,SSW,195,0.0,0.0,42,0.00,,---,0.00,VWS V14.01,2013-09-27 05:01:00,
2013-09-27 01:06:00,53.1,31.2,29.94,SSW,195,0.0,0.0,43,0.00,,---,0.00,VWS V14.01,2013-09-27 05:06:00,
2013-09-27 01:11:00,53.1,31.2,29.94,SSW,195,0.0,0.0,43,0.00,,---,0.00,VWS V14.01,2013-09-27 05:11:00,
2013-09-27 01:16:00,53.4,32.1,29.94,SSW,195,0.0,0.0,44,0.00,,---,0.00,VWS V14.01,2013-09-27 05:16:00,
2013-09-27 01:21:00,53.4,32.1,29.94,SSW,195,0.0,0.0,44,0.00,,---,0.00,VWS V14.01,2013-09-27 05:21:00,
2013-09-27 01:26:00,53.4,32.6,29.97,SSW,195,0.0,0.0,45,0.00,,---,0.00,VWS V14.01,2013-09-27 05:26:00,
2013-09-27 01:31:00,53.8,32.4,29.97,SSW,195,0.0,0.0,44,0.00,,---,0.00,VWS V14.01,2013-09-27 05:31:00,
2013-09-27 01:36:00,54.0,33.1,29.97,SSW,195,0.0,0.0,45,0.00,,---,0.00,VWS V14.01,2013-09-27 05:36:00,
2013-09-27 01:41:00,54.3,33.5,29.97,SSW,195,0.0,0.0,45,0.00,,---,0.00,VWS V14.01,2013-09-27 05:41:00,
2013-09-27 01:46:00,54.5,33.6,29.97,SSW,195,0.0,0.0,45,0.00,,---,0.00,VWS V14.01,2013-09-27 05:46:00,
2013-09-27 01:51:00,54.5,33.6,29.97,SSW,195,0.0,0.0,45,0.00,,---,0.00,VWS V14.01,2013-09-27 05:51:00,
2013-09-27 01:56:00,54.7,33.8,29.97,SSW,195,0.0,0.0,45,0.00,,---,0.00,VWS V14.01,2013-09-27 05:56:00,
2013-09-27 02:01:00,54.7,34.3,29.97,SSW,195,0.0,0.0,46,0.00,,---,0.00,VWS V14.01,2013-09-27 06:01:00,
2013-09-27 02:06:00,54.7,33.8,29.97,SSW,195,0.0,0.0,45,0.00,,---,0.00,VWS V14.01,2013-09-27 06:06:00,
2013-09-27 02:11:00,54.9,34.5,29.97,SSW,195,0.0,0.0,46,0.00,,---,0.00,VWS V14.01,2013-09-27 06:11:00,
2013-09-27 02:16:00,55.0,34.7,29.97,SSW,195,0.0,0.0,46,0.00,,---,0.00,VWS V14.01,2013-09-27 06:16:00,
2013-09-27 02:21:00,55.0,34.7,29.97,SSW,195,0.0,0.0,46,0.00,,---,0.00,VWS V14.01,2013-09-27 06:21:00,
2013-09-27 02:26:00,54.9,34.5,29.97,SSW,195,0.0,0.0,46,0.00,,---,0.00,VWS V14.01,2013-09-27 06:26:00,
2013-09-27 02:31:00,54.7,34.9,29.97,SSW,195,0.0,0.0,47,0.00,,---,0.00,VWS V14.01,2013-09-27 06:31:00,
2013-09-27 02:36:00,54.7,34.9,29.97,SSW,195,0.0,0.0,47,0.00,,---,0.00,VWS V14.01,2013-09-27 06:36:00,
2013-09-27 02:41:00,54.5,35.2,29.97,SSW,195,0.0,0.0,48,0.00,,---,0.00,VWS V14.01,2013-09-27 06:41:00,
2013-09-27 02:46:00,54.5,35.2,29.97,SSW,195,0.0,0.0,48,0.00,,---,0.00,VWS V14.01,2013-09-27 06:46:00,
2013-09-27 02:52:00,54.5,35.8,29.97,SSW,195,0.0,0.0,49,0.00,,---,0.00,VWS V14.01,2013-09-27 06:52:00,
2013-09-27 02:56:00,54.3,35.6,29.97,SSW,195,0.0,0.0,49,0.00,,---,0.00,VWS V14.01,2013-09-27 06:56:00,
2013-09-27 03:01:00,54.1,35.4,29.97,SSW,195,0.0,0.0,49,0.00,,---,0.00,VWS V14.01,2013-09-27 07:01:00,
2013-09-27 03:07:00,54.3,36.1,29.97,SSW,195,0.0,0.0,50,0.00,,---,0.00,VWS V14.01,2013-09-27 07:07:00,
2013-09-27 03:12:00,54.5,36.8,29.97,SSW,195,0.0,0.0,51,0.00,,---,0.00,VWS V14.01,2013-09-27 07:12:00,
2013-09-27 03:17:00,54.5,37.2,29.97,SSW,195,0.0,0.0,52,0.00,,---,0.00,VWS V14.01,2013-09-27 07:17:00,
2013-09-27 03:21:00,54.7,36.9,29.97,SSW,195,0.0,0.0,51,0.00,,---,0.00,VWS V14.01,2013-09-27 07:21:00,
2013-09-27 03:26:00,54.5,36.8,29.97,SSW,195,0.0,0.0,51,0.00,,---,0.00,VWS V14.01,2013-09-27 07:26:00,
2013-09-27 03:31:00,54.5,36.8,29.97,SSW,195,0.0,0.0,51,0.00,,---,0.00,VWS V14.01,2013-09-27 07:31:00,
2013-09-27 03:36:00,54.7,36.9,29.97,SSW,195,0.0,0.0,51,0.00,,---,0.00,VWS V14.01,2013-09-27 07:36:00,
2013-09-27 03:41:00,54.7,36.9,29.97,SSW,195,0.0,0.0,51,0.00,,---,0.00,VWS V14.01,2013-09-27 07:41:00,
2013-09-27 03:46:00,54.5,36.8,29.97,SSW,195,0.0,0.0,51,0.00,,---,0.00,VWS V14.01,2013-09-27 07:46:00,
2013-09-27 03:49:00,54.5,36.3,29.97,SSW,195,0.0,0.0,50,0.00,,---,0.00,VWS V14.01,2013-09-27 07:49:00,
2013-09-27 03:54:00,54.3,35.6,29.97,SSW,195,0.0,0.0,49,0.00,,---,0.00,VWS V14.01,2013-09-27 07:54:00,
2013-09-27 03:59:00,54.3,36.1,29.97,SSW,195,0.0,0.0,50,0.00,,---,0.00,VWS V14.01,2013-09-27 07:59:00,
2013-09-27 04:04:00,54.5,36.3,29.97,SSW,195,0.0,0.0,50,0.00,,---,0.00,VWS V14.01,2013-09-27 08:04:00,
2013-09-27 04:09:00,54.7,36.4,29.97,SSW,195,0.0,0.0,50,0.00,,---,0.00,VWS V14.01,2013-09-27 08:09:00,
2013-09-27 04:14:00,54.7,36.9,29.97,SSW,195,0.0,0.0,51,0.00,,---,0.00,VWS V14.01,2013-09-27 08:14:00,
2013-09-27 04:19:00,54.5,36.3,29.97,SSW,195,0.0,0.0,50,0.00,,---,0.00,VWS V14.01,2013-09-27 08:19:00,
2013-09-27 04:24:00,54.3,36.1,29.97,SSW,195,0.0,0.0,50,0.00,,---,0.00,VWS V14.01,2013-09-27 08:24:00,
2013-09-27 04:29:00,54.5,36.8,29.97,SSW,195,0.0,0.0,51,0.00,,---,0.00,VWS V14.01,2013-09-27 08:29:00,
2013-09-27 04:34:00,54.5,36.8,29.97,SSW,195,0.0,0.0,51,0.00,,---,0.00,VWS V14.01,2013-09-27 08:34:00,
2013-09-27 04:39:00,54.7,37.4,29.97,SSW,195,0.0,0.0,52,0.00,,---,0.00,VWS V14.01,2013-09-27 08:39:00,
2013-09-27 04:44:00,54.9,37.6,29.97,SSW,195,0.0,0.0,52,0.00,,---,0.00,VWS V14.01,2013-09-27 08:44:00,
2013-09-27 04:49:00,54.9,37.6,29.97,SSW,195,0.0,0.0,52,0.00,,---,0.00,VWS V14.01,2013-09-27 08:49:00,
2013-09-27 04:54:00,54.9,37.1,29.97,SSW,195,0.0,0.0,51,0.00,,---,0.00,VWS V14.01,2013-09-27 08:54:00,
2013-09-27 04:59:00,54.7,36.9,29.97,SSW,195,0.0,0.0,51,0.00,,---,0.00,VWS V14.01,2013-09-27 08:59:00,
2013-09-27 05:04:00,54.5,36.3,29.97,SSW,195,0.0,0.0,50,0.00,,---,0.00,VWS V14.01,2013-09-27 09:04:00,
2013-09-27 05:09:00,54.3,36.1,29.97,SSW,195,0.0,0.0,50,0.00,,---,0.00,VWS V14.01,2013-09-27 09:09:00,
2013-09-27 05:14:00,54.1,35.9,29.97,SSW,195,0.0,0.0,50,0.00,,---,0.00,VWS V14.01,2013-09-27 09:14:00,
2013-09-27 05:19:00,54.0,35.8,29.97,SSW,195,0.0,0.0,50,0.00,,---,0.00,VWS V14.01,2013-09-27 09:19:00,
2013-09-27 05:24:00,54.0,35.8,29.97,SSW,195,0.0,0.0,50,0.00,,---,0.00,VWS V14.01,2013-09-27 09:24:00,
2013-09-27 05:29:00,54.0,36.3,29.97,SSW,195,0.0,0.0,51,0.00,,---,0.00,VWS V14.01,2013-09-27 09:29:00,
2013-09-27 05:34:00,54.0,36.3,29.97,SSW,195,0.0,0.0,51,0.00,,---,0.00,VWS V14.01,2013-09-27 09:34:00,
2013-09-27 05:39:00,54.0,36.3,29.97,SSW,195,0.0,0.0,51,0.00,,---,0.00,VWS V14.01,2013-09-27 09:39:00,
2013-09-27 05:44:00,53.6,35.4,29.97,SSW,195,0.0,0.0,50,0.00,,---,0.00,VWS V14.01,2013-09-27 09:44:00,
2013-09-27 05:49:00,53.2,34.6,29.97,SSW,195,0.0,0.0,49,0.00,,---,0.00,VWS V14.01,2013-09-27 09:49:00,
2013-09-27 05:54:00,53.2,35.1,30.00,SSW,195,0.0,0.0,50,0.00,,---,0.00,VWS V14.01,2013-09-27 09:54:00,
2013-09-27 05:59:00,53.2,35.6,30.00,SSW,195,0.0,0.0,51,0.00,,---,0.00,VWS V14.01,2013-09-27 09:59:00,
2013-09-27 06:04:00,53.4,35.8,30.00,SSW,195,0.0,0.0,51,0.00,,---,0.00,VWS V14.01,2013-09-27 10:04:00,
2013-09-27 06:09:00,53.4,35.8,30.00,SSW,195,0.0,0.0,51,0.00,,---,0.00,VWS V14.01,2013-09-27 10:09:00,
2013-09-27 06:14:00,53.4,35.8,30.00,SSW,195,0.0,0.0,51,0.00,,---,0.00,VWS V14.01,2013-09-27 10:14:00,
2013-09-27 06:19:00,53.1,34.9,30.00,SSW,195,0.0,0.0,50,0.00,,---,0.00,VWS V14.01,2013-09-27 10:19:00,
2013-09-27 06:24:00,53.1,35.4,30.00,SSW,195,0.0,0.0,51,0.00,,---,0.00,VWS V14.01,2013-09-27 10:24:00,
2013-09-27 06:29:00,53.1,35.4,30.00,SSW,195,0.0,0.0,51,0.00,,---,0.00,VWS V14.01,2013-09-27 10:29:00,
2013-09-27 06:34:00,53.1,34.9,30.00,SSW,195,0.0,0.0,50,0.00,,---,0.00,VWS V14.01,2013-09-27 10:34:00,
2013-09-27 06:39:00,53.1,35.4,30.00,SSW,195,0.0,0.0,51,0.00,,---,0.00,VWS V14.01,2013-09-27 10:39:00,
2013-09-27 06:44:00,53.1,35.4,30.00,SSW,195,0.0,0.0,51,0.00,,---,0.00,VWS V14.01,2013-09-27 10:44:00,
2013-09-27 06:49:00,53.1,35.4,30.00,SSW,195,0.0,0.0,51,0.00,,---,0.00,VWS V14.01,2013-09-27 10:49:00,
2013-09-27 06:54:00,53.1,35.4,30.00,SSW,195,0.0,0.0,51,0.00,,---,0.00,VWS V14.01,2013-09-27 10:54:00,
2013-09-27 06:59:00,52.9,34.8,30.00,SSW,195,0.0,0.0,50,0.00,,---,0.00,VWS V14.01,2013-09-27 10:59:00,
2013-09-27 07:04:00,52.9,35.3,30.00,SSW,195,0.0,0.0,51,0.00,,---,0.00,VWS V14.01,2013-09-27 11:04:00,
2013-09-27 07:09:00,52.9,35.3,30.00,SSW,195,0.0,0.0,51,0.00,,---,0.00,VWS V14.01,2013-09-27 11:09:00,
2013-09-27 07:14:00,52.9,35.3,30.00,SSW,195,0.0,0.0,51,0.00,,---,0.00,VWS V14.01,2013-09-27 11:14:00,
2013-09-27 07:19:00,52.9,35.3,30.00,SSW,195,0.0,0.0,51,0.00,,---,0.00,VWS V14.01,2013-09-27 11:19:00,
2013-09-27 07:24:00,52.9,35.3,30.03,SSW,195,0.0,0.0,51,0.00,,---,0.00,VWS V14.01,2013-09-27 11:24:00,
2013-09-27 07:29:00,52.9,35.3,30.03,NNW,341,0.0,0.0,51,0.00,,---,0.00,VWS V14.01,2013-09-27 11:29:00,
2013-09-27 07:34:00,52.7,35.6,30.03,NNW,341,0.0,0.0,52,0.00,,---,0.00,VWS V14.01,2013-09-27 11:34:00,
2013-09-27 07:39:00,52.5,35.9,30.03,NNW,341,0.0,0.0,53,0.00,,---,0.00,VWS V14.01,2013-09-27 11:39:00,
2013-09-27 07:44:00,52.7,36.5,30.03,NNW,341,0.0,0.0,54,0.00,,---,0.00,VWS V14.01,2013-09-27 11:44:00,
2013-09-27 07:49:00,52.7,37.0,30.03,NNW,341,0.0,0.0,55,0.00,,---,0.00,VWS V14.01,2013-09-27 11:49:00,
2013-09-27 07:54:00,52.9,37.2,30.03,NNW,341,0.0,0.0,55,0.00,,---,0.00,VWS V14.01,2013-09-27 11:54:00,
2013-09-27 07:59:00,53.2,38.4,30.03,NNW,341,0.0,0.0,57,0.00,,---,0.00,VWS V14.01,2013-09-27 11:59:00,
2013-09-27 08:04:00,53.6,38.8,30.03,NNW,341,0.0,0.0,57,0.00,,---,0.00,VWS V14.01,2013-09-27 12:04:00,
2013-09-27 08:09:00,54.0,39.1,30.03,NNW,341,0.0,0.0,57,0.00,,---,0.00,VWS V14.01,2013-09-27 12:09:00,
2013-09-27 08:14:00,54.3,39.9,30.03,NNW,341,0.0,0.0,58,0.00,,---,0.00,VWS V14.01,2013-09-27 12:14:00,
2013-09-27 08:19:00,54.7,40.7,30.03,NNW,341,0.0,0.0,59,0.00,,---,0.00,VWS V14.01,2013-09-27 12:19:00,
2013-09-27 08:24:00,55.2,44.5,30.03,NNW,341,0.0,0.0,67,0.00,,---,0.00,VWS V14.01,2013-09-27 12:24:00,
2013-09-27 08:29:00,55.8,45.4,30.03,NNW,341,0.0,0.0,68,0.00,,---,0.00,VWS V14.01,2013-09-27 12:29:00,
2013-09-27 08:34:00,56.1,46.1,30.03,NNW,341,0.0,0.0,69,0.00,,---,0.00,VWS V14.01,2013-09-27 12:34:00,
2013-09-27 08:39:00,56.7,47.4,30.03,NNW,341,0.0,0.0,71,0.00,,---,0.00,VWS V14.01,2013-09-27 12:39:00,
2013-09-27 08:44:00,57.2,48.3,30.03,NNW,341,0.0,0.0,72,0.00,,---,0.00,VWS V14.01,2013-09-27 12:44:00,
2013-09-27 08:49:00,57.9,49.0,30.03,NNW,341,0.0,0.0,72,0.00,,---,0.00,VWS V14.01,2013-09-27 12:49:00,
2013-09-27 08:54:00,58.3,48.9,30.03,NNW,341,0.0,0.0,71,0.00,,---,0.00,VWS V14.01,2013-09-27 12:54:00,
2013-09-27 08:59:00,58.8,49.1,30.03,NNW,341,0.0,0.0,70,0.00,,---,0.00,VWS V14.01,2013-09-27 12:59:00,
2013-09-27 09:04:00,59.0,46.8,30.03,NNW,341,0.0,0.0,64,0.00,,---,0.00,VWS V14.01,2013-09-27 13:04:00,
2013-09-27 09:09:00,59.4,43.2,30.06,NNW,341,0.0,0.0,55,0.00,,---,0.00,VWS V14.01,2013-09-27 13:09:00,
2013-09-27 09:14:00,59.5,39.3,30.06,NW,306,0.0,0.0,47,0.00,,---,0.00,VWS V14.01,2013-09-27 13:14:00,
2013-09-27 09:19:00,59.7,38.9,30.06,North,349,0.0,0.0,46,0.00,,---,0.00,VWS V14.01,2013-09-27 13:19:00,
2013-09-27 09:24:00,60.1,39.2,30.06,North,349,0.0,0.0,46,0.00,,---,0.00,VWS V14.01,2013-09-27 13:24:00,
2013-09-27 09:29:00,60.4,39.6,30.06,NW,310,0.0,2.2,46,0.00,,---,0.00,VWS V14.01,2013-09-27 13:29:00,
2013-09-27 09:34:00,60.8,38.8,30.06,NE,34,0.0,0.0,44,0.00,,---,0.00,VWS V14.01,2013-09-27 13:34:00,
2013-09-27 09:39:00,61.2,36.7,30.06,NE,36,0.0,2.7,40,0.00,,---,0.00,VWS V14.01,2013-09-27 13:39:00,
2013-09-27 09:44:00,61.3,33.5,30.06,WSW,258,0.0,0.0,35,0.00,,---,0.00,VWS V14.01,2013-09-27 13:44:00,
2013-09-27 09:49:00,61.9,33.2,30.06,NNW,327,2.7,2.7,34,0.00,,---,0.00,VWS V14.01,2013-09-27 13:49:00,
2013-09-27 09:54:00,62.4,34.4,30.06,North,349,0.0,0.0,35,0.00,,---,0.00,VWS V14.01,2013-09-27 13:54:00,
2013-09-27 09:59:00,63.0,34.2,30.06,North,357,2.2,2.2,34,0.00,,---,0.00,VWS V14.01,2013-09-27 13:59:00,
2013-09-27 10:04:00,63.5,32.3,30.06,NNW,330,0.0,0.0,31,0.00,,---,0.00,VWS V14.01,2013-09-27 14:04:00,
2013-09-27 10:09:00,63.9,27.4,30.06,West,275,2.2,2.2,25,0.00,,---,0.00,VWS V14.01,2013-09-27 14:09:00,
2013-09-27 10:14:00,64.4,28.8,30.06,NNW,331,0.0,0.0,26,0.00,,---,0.00,VWS V14.01,2013-09-27 14:14:00,
2013-09-27 10:19:00,64.9,28.3,30.06,NW,321,3.1,3.1,25,0.00,,---,0.00,VWS V14.01,2013-09-27 14:19:00,
2013-09-27 10:24:00,64.9,26.3,30.06,NW,321,0.0,0.0,23,0.00,,---,0.00,VWS V14.01,2013-09-27 14:24:00,
2013-09-27 10:29:00,64.9,20.4,30.06,NW,319,4.0,4.0,18,0.00,,---,0.00,VWS V14.01,2013-09-27 14:29:00,
2013-09-27 10:34:00,65.3,20.7,30.06,NW,316,3.1,3.1,18,0.00,,---,0.00,VWS V14.01,2013-09-27 14:34:00,
2013-09-27 10:39:00,65.8,23.7,30.06,NE,45,2.7,3.1,20,0.00,,---,0.00,VWS V14.01,2013-09-27 14:39:00,
2013-09-27 10:44:00,65.8,21.2,30.06,NW,324,4.0,4.5,18,0.00,,---,0.00,VWS V14.01,2013-09-27 14:44:00,
2013-09-27 10:49:00,65.7,16.8,30.06,NNW,331,2.2,3.6,15,0.00,,---,0.00,VWS V14.01,2013-09-27 14:49:00,
2013-09-27 10:54:00,65.7,16.8,30.06,NW,318,2.2,3.1,15,0.00,,---,0.00,VWS V14.01,2013-09-27 14:54:00,
2013-09-27 10:59:00,66.0,17.1,30.06,NNE,31,0.0,0.0,15,0.00,,---,0.00,VWS V14.01,2013-09-27 14:59:00,
2013-09-27 11:04:00,66.6,20.4,30.06,NW,316,4.9,4.9,17,0.00,,---,0.00,VWS V14.01,2013-09-27 15:04:00,
2013-09-27 11:09:00,66.9,12.7,30.06,WSW,238,2.2,2.2,12,0.00,,---,0.00,VWS V14.01,2013-09-27 15:09:00,
2013-09-27 11:14:00,66.9,12.7,30.06,North,357,3.1,3.1,12,0.00,,---,0.00,VWS V14.01,2013-09-27 15:14:00,
2013-09-27 11:19:00,66.9,12.7,30.06,WNW,285,0.0,0.0,12,0.00,,---,0.00,VWS V14.01,2013-09-27 15:19:00,
2013-09-27 11:24:00,67.1,12.8,30.06,NW,322,0.0,2.7,12,0.00,,---,0.00,VWS V14.01,2013-09-27 15:24:00,
2013-09-27 11:29:00,66.9,12.7,30.06,NW,316,2.2,5.8,12,0.00,,---,0.00,VWS V14.01,2013-09-27 15:29:00,
2013-09-27 11:34:00,66.7,12.5,30.06,North,357,4.0,4.0,12,0.00,,---,0.00,VWS V14.01,2013-09-27 15:34:00,
2013-09-27 11:39:00,67.3,13.0,30.06,NNE,19,0.0,0.0,12,0.00,,---,0.00,VWS V14.01,2013-09-27 15:39:00,
2013-09-27 11:44:00,68.2,9.6,30.06,North,353,0.0,0.0,10,0.00,,---,0.00,VWS V14.01,2013-09-27 15:44:00,
2013-09-27 11:49:00,67.8,9.3,30.06,NW,315,3.6,4.0,10,0.00,,---,0.00,VWS V14.01,2013-09-27 15:49:00,
2013-09-27 11:54:00,67.5,13.1,30.06,NW,316,0.0,0.0,12,0.00,,---,0.00,VWS V14.01,2013-09-27 15:54:00,
2013-09-27 11:59:00,67.1,8.7,30.06,NW,306,0.0,0.0,10,0.00,,---,0.00,VWS V14.01,2013-09-27 15:59:00,
2013-09-27 12:04:00,67.1,12.8,30.06,NW,311,0.0,0.0,12,0.00,,---,0.00,VWS V14.01,2013-09-27 16:04:00,
2013-09-27 12:09:00,67.1,12.8,30.06,NNW,331,3.6,3.6,12,0.00,,---,0.00,VWS V14.01,2013-09-27 16:09:00,
2013-09-27 12:14:00,67.3,13.0,30.06,WSW,239,0.0,0.0,12,0.00,,---,0.00,VWS V14.01,2013-09-27 16:14:00,
2013-09-27 12:19:00,67.8,13.4,30.06,WSW,239,0.0,0.0,12,0.00,,---,0.00,VWS V14.01,2013-09-27 16:19:00,
2013-09-27 12:24:00,68.7,14.1,30.06,ENE,63,3.1,3.1,12,0.00,,---,0.00,VWS V14.01,2013-09-27 16:24:00,
2013-09-27 12:29:00,69.1,10.3,30.06,NNW,341,0.0,0.0,10,0.00,,---,0.00,VWS V14.01,2013-09-27 16:29:00,
2013-09-27 12:34:00,68.9,10.1,30.06,NW,325,0.0,0.0,10,0.00,,---,0.00,VWS V14.01,2013-09-27 16:34:00,
2013-09-27 12:39:00,68.5,9.8,30.06,West,266,0.0,0.0,10,0.00,,---,0.00,VWS V14.01,2013-09-27 16:39:00,
2013-09-27 12:44:00,68.2,9.6,30.06,NNE,20,0.0,0.0,10,0.00,,---,0.00,VWS V14.01,2013-09-27 16:44:00,
2013-09-27 12:49:00,68.2,9.6,30.06,NE,36,2.7,2.7,10,0.00,,---,0.00,VWS V14.01,2013-09-27 16:49:00,
2013-09-27 12:54:00,68.2,9.6,30.06,WNW,300,0.0,0.0,10,0.00,,---,0.00,VWS V14.01,2013-09-27 16:54:00,
2013-09-27 12:59:00,68.5,9.8,30.06,West,264,0.0,0.0,10,0.00,,---,0.00,VWS V14.01,2013-09-27 16:59:00,
2013-09-27 13:04:00,68.5,9.8,30.06,SSW,205,0.0,0.0,10,0.00,,---,0.00,VWS V14.01,2013-09-27 17:04:00,
2013-09-27 13:09:00,68.5,9.8,30.06,WSW,239,0.0,0.0,10,0.00,,---,0.00,VWS V14.01,2013-09-27 17:09:00,
2013-09-27 13:14:00,68.4,9.7,30.06,North,353,2.7,2.7,10,0.00,,---,0.00,VWS V14.01,2013-09-27 17:14:00,
2013-09-27 13:19:00,68.2,9.6,30.06,North,4,0.0,0.0,10,0.00,,---,0.00,VWS V14.01,2013-09-27 17:19:00,
2013-09-27 13:24:00,68.0,13.5,30.06,WNW,303,0.0,0.0,12,0.00,,---,0.00,VWS V14.01,2013-09-27 17:24:00,
2013-09-27 13:26:00,67.8,13.4,30.06,WNW,303,0.0,0.0,12,0.00,,---,0.00,VWS V14.01,2013-09-27 17:26:00,
2013-09-27 13:31:00,67.6,13.2,30.06,NNW,345,0.0,0.0,12,0.00,,---,0.00,VWS V14.01,2013-09-27 17:31:00,
2013-09-27 13:36:00,67.5,13.1,30.06,NNW,345,0.0,0.0,12,0.00,,---,0.00,VWS V14.01,2013-09-27 17:36:00,
2013-09-27 13:41:00,67.1,12.8,30.03,NNW,345,0.0,0.0,12,0.00,,---,0.00,VWS V14.01,2013-09-27 17:41:00,
2013-09-27 13:46:00,66.9,12.7,30.03,NNW,335,0.0,0.0,12,0.00,,---,0.00,VWS V14.01,2013-09-27 17:46:00,
2013-09-27 13:51:00,66.9,12.7,30.03,NNE,23,0.0,0.0,12,0.00,,---,0.00,VWS V14.01,2013-09-27 17:51:00,
2013-09-27 13:56:00,66.9,12.7,30.03,NNE,23,0.0,0.0,12,0.00,,---,0.00,VWS V14.01,2013-09-27 17:56:00,
2013-09-27 14:01:00,67.1,12.8,30.03,NNE,23,0.0,0.0,12,0.00,,---,0.00,VWS V14.01,2013-09-27 18:01:00,
2013-09-27 14:06:00,67.5,13.1,30.03,NNE,23,0.0,0.0,12,0.00,,---,0.00,VWS V14.01,2013-09-27 18:06:00,
2013-09-27 14:11:00,67.8,13.4,30.03,WSW,246,2.2,2.7,12,0.00,,---,0.00,VWS V14.01,2013-09-27 18:11:00,
2013-09-27 14:16:00,68.2,13.7,30.03,NNW,328,0.0,0.0,12,0.00,,---,0.00,VWS V14.01,2013-09-27 18:16:00,
2013-09-27 14:21:00,67.8,13.4,30.03,West,260,0.0,0.0,12,0.00,,---,0.00,VWS V14.01,2013-09-27 18:21:00,
2013-09-27 14:26:00,67.5,13.1,30.03,WNW,301,0.0,0.0,12,0.00,,---,0.00,VWS V14.01,2013-09-27 18:26:00,
2013-09-27 14:31:00,67.3,13.0,30.03,NNW,333,0.0,0.0,12,0.00,,---,0.00,VWS V14.01,2013-09-27 18:31:00,
2013-09-27 14:36:00,67.1,12.8,30.03,NNW,335,0.0,0.0,12,0.00,,---,0.00,VWS V14.01,2013-09-27 18:36:00,
2013-09-27 14:41:00,66.9,12.7,30.03,NNW,336,0.0,0.0,12,0.00,,---,0.00,VWS V14.01,2013-09-27 18:41:00,
2013-09-27 14:46:00,66.7,12.5,30.03,WSW,241,0.0,0.0,12,0.00,,---,0.00,VWS V14.01,2013-09-27 18:46:00,
2013-09-27 14:51:00,66.9,12.7,30.03,WSW,237,0.0,0.0,12,0.00,,---,0.00,VWS V14.01,2013-09-27 18:51:00,
2013-09-27 14:56:00,66.9,12.7,30.03,WSW,237,0.0,0.0,12,0.00,,---,0.00,VWS V14.01,2013-09-27 18:56:00,
2013-09-27 15:01:00,67.3,13.0,30.03,WSW,237,0.0,0.0,12,0.00,,---,0.00,VWS V14.01,2013-09-27 19:01:00,
2013-09-27 15:06:00,67.3,13.0,30.03,NNE,21,0.0,0.0,12,0.00,,---,0.00,VWS V14.01,2013-09-27 19:06:00,
2013-09-27 15:11:00,67.3,13.0,30.03,NNE,21,0.0,0.0,12,0.00,,---,0.00,VWS V14.01,2013-09-27 19:11:00,
2013-09-27 15:16:00,67.1,12.8,30.03,NNE,21,0.0,0.0,12,0.00,,---,0.00,VWS V14.01,2013-09-27 19:16:00,
2013-09-27 15:21:00,67.1,12.8,30.03,NNE,21,0.0,0.0,12,0.00,,---,0.00,VWS V14.01,2013-09-27 19:21:00,
2013-09-27 15:26:00,67.1,12.8,30.03,NNE,21,0.0,0.0,12,0.00,,---,0.00,VWS V14.01,2013-09-27 19:26:00,
2013-09-27 15:31:00,67.3,13.0,30.03,NNE,21,0.0,0.0,12,0.00,,---,0.00,VWS V14.01,2013-09-27 19:31:00,
2013-09-27 15:36:00,67.6,13.2,30.03,NNE,22,0.0,0.0,12,0.00,,---,0.00,VWS V14.01,2013-09-27 19:36:00,
2013-09-27 15:41:00,67.8,13.4,30.03,NNE,22,0.0,0.0,12,0.00,,---,0.00,VWS V14.01,2013-09-27 19:41:00,
2013-09-27 15:46:00,67.6,13.2,30.03,NW,323,0.0,0.0,12,0.00,,---,0.00,VWS V14.01,2013-09-27 19:46:00,
2013-09-27 15:51:00,67.6,13.2,30.03,SE,131,0.0,0.0,12,0.00,,---,0.00,VWS V14.01,2013-09-27 19:51:00,
2013-09-27 15:56:00,67.3,13.0,30.03,SW,229,0.0,0.0,12,0.00,,---,0.00,VWS V14.01,2013-09-27 19:56:00,
2013-09-27 16:01:00,66.9,12.7,30.03,North,349,0.0,0.0,12,0.00,,---,0.00,VWS V14.01,2013-09-27 20:01:00,
2013-09-27 16:06:00,66.6,12.4,30.03,SSW,200,0.0,0.0,12,0.00,,---,0.00,VWS V14.01,2013-09-27 20:06:00,
2013-09-27 16:11:00,66.6,12.4,30.03,SSW,200,0.0,0.0,12,0.00,,---,0.00,VWS V14.01,2013-09-27 20:11:00,
2013-09-27 16:16:00,66.6,12.4,30.03,SSW,200,0.0,0.0,12,0.00,,---,0.00,VWS V14.01,2013-09-27 20:16:00,
2013-09-27 16:21:00,66.6,12.4,30.03,SSW,200,0.0,0.0,12,0.00,,---,0.00,VWS V14.01,2013-09-27 20:21:00,
2013-09-27 16:26:00,66.7,12.5,30.03,SSW,200,0.0,0.0,12,0.00,,---,0.00,VWS V14.01,2013-09-27 20:26:00,
2013-09-27 16:31:00,66.7,12.5,30.03,SSW,200,0.0,0.0,12,0.00,,---,0.00,VWS V14.01,2013-09-27 20:31:00,
2013-09-27 16:36:00,66.7,12.5,30.03,SSW,200,0.0,0.0,12,0.00,,---,0.00,VWS V14.01,2013-09-27 20:36:00,
2013-09-27 16:41:00,66.7,12.5,30.03,NNE,21,0.0,0.0,12,0.00,,---,0.00,VWS V14.01,2013-09-27 20:41:00,
2013-09-27 16:46:00,66.9,12.7,30.03,NE,54,0.0,0.0,12,0.00,,---,0.00,VWS V14.01,2013-09-27 20:46:00,
2013-09-27 16:51:00,66.7,12.5,30.03,ENE,63,2.7,2.7,12,0.00,,---,0.00,VWS V14.01,2013-09-27 20:51:00,
2013-09-27 16:56:00,66.9,12.7,30.03,West,277,0.0,0.0,12,0.00,,---,0.00,VWS V14.01,2013-09-27 20:56:00,
2013-09-27 17:01:00,67.3,13.0,30.03,ESE,120,2.7,2.7,12,0.00,,---,0.00,VWS V14.01,2013-09-27 21:01:00,
2013-09-27 17:06:00,67.1,12.8,30.03,NW,312,0.0,0.0,12,0.00,,---,0.00,VWS V14.01,2013-09-27 21:06:00,
2013-09-27 17:11:00,67.1,12.8,30.03,North,10,0.0,0.0,12,0.00,,---,0.00,VWS V14.01,2013-09-27 21:11:00,
2013-09-27 17:16:00,66.7,12.5,30.03,ENE,77,2.7,2.7,12,0.00,,---,0.00,VWS V14.01,2013-09-27 21:16:00,
2013-09-27 17:21:00,66.2,12.1,30.03,NNW,332,0.0,0.0,12,0.00,,---,0.00,VWS V14.01,2013-09-27 21:21:00,
2013-09-27 17:26:00,66.0,13.8,30.03,NNW,332,0.0,0.0,13,0.00,,---,0.00,VWS V14.01,2013-09-27 21:26:00,
2013-09-27 17:31:00,66.0,13.8,30.03,NNE,16,2.7,2.7,13,0.00,,---,0.00,VWS V14.01,2013-09-27 21:31:00,
2013-09-27 17:36:00,65.7,13.5,30.03,NNE,16,0.0,0.0,13,0.00,,---,0.00,VWS V14.01,2013-09-27 21:36:00,
2013-09-27 17:41:00,65.7,16.8,30.03,NNE,16,0.0,0.0,15,0.00,,---,0.00,VWS V14.01,2013-09-27 21:41:00,
2013-09-27 17:46:00,65.5,16.6,30.03,NNE,16,0.0,0.0,15,0.00,,---,0.00,VWS V14.01,2013-09-27 21:46:00,
2013-09-27 17:51:00,65.5,16.6,30.03,NNE,16,0.0,0.0,15,0.00,,---,0.00,VWS V14.01,2013-09-27 21:51:00,
2013-09-27 17:56:00,65.3,16.5,30.03,NNE,16,0.0,0.0,15,0.00,,---,0.00,VWS V14.01,2013-09-27 21:56:00,
2013-09-27 18:01:00,64.9,16.2,30.03,NNE,16,0.0,0.0,15,0.00,,---,0.00,VWS V14.01,2013-09-27 22:01:00,
2013-09-27 18:06:00,64.8,16.1,30.03,NNE,16,0.0,0.0,15,0.00,,---,0.00,VWS V14.01,2013-09-27 22:06:00,
2013-09-27 18:11:00,64.4,15.8,30.06,NNE,16,0.0,0.0,15,0.00,,---,0.00,VWS V14.01,2013-09-27 22:11:00,
2013-09-27 18:16:00,64.0,19.7,30.06,NNE,16,0.0,0.0,18,0.00,,---,0.00,VWS V14.01,2013-09-27 22:16:00,
2013-09-27 18:21:00,63.7,19.4,30.06,NNE,16,0.0,0.0,18,0.00,,---,0.00,VWS V14.01,2013-09-27 22:21:00,
2013-09-27 18:26:00,63.3,19.1,30.06,NNE,16,0.0,0.0,18,0.00,,---,0.00,VWS V14.01,2013-09-27 22:26:00,
2013-09-27 18:31:00,63.0,22.5,30.06,NNE,16,0.0,0.0,21,0.00,,---,0.00,VWS V14.01,2013-09-27 22:31:00,
2013-09-27 18:36:00,62.6,24.3,30.06,NNE,16,0.0,0.0,23,0.00,,---,0.00,VWS V14.01,2013-09-27 22:36:00,
2013-09-27 18:41:00,62.2,25.0,30.06,NNE,16,0.0,0.0,24,0.00,,---,0.00,VWS V14.01,2013-09-27 22:41:00,
2013-09-27 18:46:00,61.9,24.7,30.06,NNE,16,0.0,0.0,24,0.00,,---,0.00,VWS V14.01,2013-09-27 22:46:00,
2013-09-27 18:51:00,61.7,25.5,30.06,NNE,16,0.0,0.0,25,0.00,,---,0.00,VWS V14.01,2013-09-27 22:51:00,
2013-09-27 18:56:00,61.7,25.5,30.06,NNE,16,0.0,0.0,25,0.00,,---,0.00,VWS V14.01,2013-09-27 22:56:00,
2013-09-27 19:01:00,61.3,25.2,30.06,NNE,16,0.0,0.0,25,0.00,,---,0.00,VWS V14.01,2013-09-27 23:01:00,
2013-09-27 19:06:00,61.2,25.1,30.06,NNE,16,0.0,0.0,25,0.00,,---,0.00,VWS V14.01,2013-09-27 23:06:00,
2013-09-27 19:11:00,61.0,24.9,30.06,NNE,16,0.0,0.0,25,0.00,,---,0.00,VWS V14.01,2013-09-27 23:11:00,
2013-09-27 19:17:00,60.8,24.8,30.06,NNE,16,0.0,0.0,25,0.00,,---,0.00,VWS V14.01,2013-09-27 23:17:00,
2013-09-27 19:22:00,60.6,26.5,30.06,NNE,16,0.0,0.0,27,0.00,,---,0.00,VWS V14.01,2013-09-27 23:22:00,
2013-09-27 19:27:00,60.4,26.3,30.06,NNE,16,0.0,0.0,27,0.00,,---,0.00,VWS V14.01,2013-09-27 23:27:00,
2013-09-27 19:32:00,60.4,27.2,30.06,NNE,16,0.0,0.0,28,0.00,,---,0.00,VWS V14.01,2013-09-27 23:32:00,
2013-09-27 19:37:00,60.4,27.2,30.06,NNE,16,0.0,0.0,28,0.00,,---,0.00,VWS V14.01,2013-09-27 23:37:00,
2013-09-27 19:42:00,60.4,28.1,30.06,NNE,16,0.0,0.0,29,0.00,,---,0.00,VWS V14.01,2013-09-27 23:42:00,
2013-09-27 19:47:00,60.4,28.1,30.06,NNE,16,0.0,0.0,29,0.00,,---,0.00,VWS V14.01,2013-09-27 23:47:00,
2013-09-27 19:52:00,60.4,28.1,30.06,NNE,16,0.0,0.0,29,0.00,,---,0.00,VWS V14.01,2013-09-27 23:52:00,
2013-09-27 19:57:00,60.4,28.9,30.06,NNE,16,0.0,0.0,30,0.00,,---,0.00,VWS V14.01,2013-09-27 23:57:00,
2013-09-27 20:02:00,60.3,30.3,30.06,NNE,16,0.0,0.0,32,0.00,,---,0.00,VWS V14.01,2013-09-28 00:02:00,
2013-09-27 20:07:00,60.3,30.3,30.06,NNE,16,0.0,0.0,32,0.00,,---,0.00,VWS V14.01,2013-09-28 00:07:00,
2013-09-27 20:12:00,60.4,30.5,30.06,NNE,16,0.0,0.0,32,0.00,,---,0.00,VWS V14.01,2013-09-28 00:12:00,
2013-09-27 20:17:00,60.4,30.5,30.06,NNE,16,0.0,0.0,32,0.00,,---,0.00,VWS V14.01,2013-09-28 00:17:00,
2013-09-27 20:22:00,60.4,30.5,30.06,NNE,16,0.0,0.0,32,0.00,,---,0.00,VWS V14.01,2013-09-28 00:22:00,
2013-09-27 20:27:00,60.4,30.5,30.06,NNE,16,0.0,0.0,32,0.00,,---,0.00,VWS V14.01,2013-09-28 00:27:00,
2013-09-27 20:32:00,60.3,31.1,30.06,NNE,16,0.0,0.0,33,0.00,,---,0.00,VWS V14.01,2013-09-28 00:32:00,
2013-09-27 20:37:00,60.3,31.1,30.06,NNE,16,0.0,0.0,33,0.00,,---,0.00,VWS V14.01,2013-09-28 00:37:00,
2013-09-27 20:42:00,60.3,31.8,30.06,NNE,16,0.0,0.0,34,0.00,,---,0.00,VWS V14.01,2013-09-28 00:42:00,
2013-09-27 20:47:00,60.3,31.8,30.06,NNE,16,0.0,0.0,34,0.00,,---,0.00,VWS V14.01,2013-09-28 00:47:00,
2013-09-27 20:52:00,60.3,31.8,30.09,NNE,16,0.0,0.0,34,0.00,,---,0.00,VWS V14.01,2013-09-28 00:52:00,
2013-09-27 20:57:00,60.4,32.0,30.09,NNE,16,0.0,0.0,34,0.00,,---,0.00,VWS V14.01,2013-09-28 00:57:00,
2013-09-27 21:02:00,60.4,32.0,30.09,NNE,16,0.0,0.0,34,0.00,,---,0.00,VWS V14.01,2013-09-28 01:02:00,
2013-09-27 21:07:00,60.4,32.0,30.09,NNE,16,0.0,0.0,34,0.00,,---,0.00,VWS V14.01,2013-09-28 01:07:00,
2013-09-27 21:12:00,60.4,32.0,30.09,NNE,16,0.0,0.0,34,0.00,,---,0.00,VWS V14.01,2013-09-28 01:12:00,
2013-09-27 21:17:00,60.4,32.0,30.09,NNE,16,0.0,0.0,34,0.00,,---,0.00,VWS V14.01,2013-09-28 01:17:00,
2013-09-27 21:22:00,60.4,32.0,30.09,NNE,16,0.0,0.0,34,0.00,,---,0.00,VWS V14.01,2013-09-28 01:22:00,
2013-09-27 21:27:00,60.4,32.0,30.09,NNE,16,0.0,0.0,34,0.00,,---,0.00,VWS V14.01,2013-09-28 01:27:00,
2013-09-27 21:32:00,60.4,32.0,30.09,NNE,16,0.0,0.0,34,0.00,,---,0.00,VWS V14.01,2013-09-28 01:32:00,
2013-09-27 21:37:00,60.4,32.0,30.09,NNE,16,0.0,0.0,34,0.00,,---,0.00,VWS V14.01,2013-09-28 01:37:00,
2013-09-27 21:42:00,60.4,32.0,30.09,NNE,16,0.0,0.0,34,0.00,,---,0.00,VWS V14.01,2013-09-28 01:42:00,
2013-09-27 21:47:00,60.3,32.5,30.09,NNE,16,0.0,0.0,35,0.00,,---,0.00,VWS V14.01,2013-09-28 01:47:00,
2013-09-27 21:52:00,60.3,32.5,30.09,NNE,16,0.0,0.0,35,0.00,,---,0.00,VWS V14.01,2013-09-28 01:52:00,
2013-09-27 21:57:00,60.3,32.5,30.09,NNE,16,0.0,0.0,35,0.00,,---,0.00,VWS V14.01,2013-09-28 01:57:00,
2013-09-27 22:02:00,60.3,32.5,30.09,NNE,16,0.0,0.0,35,0.00,,---,0.00,VWS V14.01,2013-09-28 02:02:00,
2013-09-27 22:07:00,60.1,33.1,30.09,NNE,16,0.0,0.0,36,0.00,,---,0.00,VWS V14.01,2013-09-28 02:07:00,
2013-09-27 22:12:00,60.1,33.1,30.09,NNE,16,0.0,0.0,36,0.00,,---,0.00,VWS V14.01,2013-09-28 02:12:00,
2013-09-27 22:17:00,60.1,33.1,30.09,NNE,16,0.0,0.0,36,0.00,,---,0.00,VWS V14.01,2013-09-28 02:17:00,
2013-09-27 22:22:00,60.1,33.1,30.09,NNE,16,0.0,0.0,36,0.00,,---,0.00,VWS V14.01,2013-09-28 02:22:00,
2013-09-27 22:27:00,60.1,33.8,30.09,NNE,16,0.0,0.0,37,0.00,,---,0.00,VWS V14.01,2013-09-28 02:27:00,
2013-09-27 22:32:00,59.9,33.6,30.09,NNE,16,0.0,0.0,37,0.00,,---,0.00,VWS V14.01,2013-09-28 02:32:00,
2013-09-27 22:37:00,60.1,33.8,30.12,NNE,16,0.0,0.0,37,0.00,,---,0.00,VWS V14.01,2013-09-28 02:37:00,
2013-09-27 22:42:00,59.9,33.6,30.12,NNE,16,0.0,0.0,37,0.00,,---,0.00,VWS V14.01,2013-09-28 02:42:00,
2013-09-27 22:47:00,59.9,33.6,30.12,NNE,16,0.0,0.0,37,0.00,,---,0.00,VWS V14.01,2013-09-28 02:47:00,
2013-09-27 22:52:00,59.9,34.2,30.12,NNE,16,0.0,0.0,38,0.00,,---,0.00,VWS V14.01,2013-09-28 02:52:00,
2013-09-27 22:57:00,60.1,34.4,30.12,NNE,16,0.0,0.0,38,0.00,,---,0.00,VWS V14.01,2013-09-28 02:57:00,
2013-09-27 23:02:00,60.1,34.4,30.12,NNE,16,0.0,0.0,38,0.00,,---,0.00,VWS V14.01,2013-09-28 03:02:00,
2013-09-27 23:07:00,60.3,34.6,30.09,NNE,16,0.0,0.0,38,0.00,,---,0.00,VWS V14.01,2013-09-28 03:07:00,
2013-09-27 23:13:00,60.1,34.4,30.09,NNE,16,0.0,0.0,38,0.00,,---,0.00,VWS V14.01,2013-09-28 03:13:00,
2013-09-27 23:18:00,60.1,34.4,30.09,NNE,16,0.0,0.0,38,0.00,,---,0.00,VWS V14.01,2013-09-28 03:18:00,
2013-09-27 23:23:00,60.1,35.1,30.09,North,7,3.1,3.1,39,0.00,,---,0.00,VWS V14.01,2013-09-28 03:23:00,
2013-09-27 23:28:00,60.1,35.1,30.09,North,7,0.0,0.0,39,0.00,,---,0.00,VWS V14.01,2013-09-28 03:28:00,
2013-09-27 23:33:00,60.1,35.1,30.09,North,7,0.0,0.0,39,0.00,,---,0.00,VWS V14.01,2013-09-28 03:33:00,
2013-09-27 23:38:00,60.1,35.1,30.12,North,7,0.0,0.0,39,0.00,,---,0.00,VWS V14.01,2013-09-28 03:38:00,
2013-09-27 23:43:00,60.1,35.1,30.12,North,7,0.0,0.0,39,0.00,,---,0.00,VWS V14.01,2013-09-28 03:43:00,
2013-09-27 23:48:00,60.1,35.1,30.12,North,7,0.0,0.0,39,0.00,,---,0.00,VWS V14.01,2013-09-28 03:48:00,
2013-09-27 23:53:00,60.1,35.1,30.12,North,7,0.0,0.0,39,0.00,,---,0.00,VWS V14.01,2013-09-28 03:53:00,
2013-09-27 23:58:00,60.1,35.1,30.12,North,7,0.0,0.0,39,0.00,,---,0.00,VWS V14.01,2013-09-28 03:58:00,